createdAt,value
2023-02-17T00:01:44.563Z,21.97
2023-02-17T00:04:13.319Z,21.73
2023-02-17T00:06:41.844Z,23.27
2023-02-17T00:09:11.393Z,24.93
2023-02-17T00:11:39.560Z,23.17
2023-02-17T00:14:08.297Z,25.83
2023-02-17T00:16:36.428Z,26.27
2023-02-17T00:19:24.848Z,30.80
2023-02-17T00:21:55.501Z,27.57
2023-02-17T00:24:25.212Z,30.60
2023-02-17T00:26:53.378Z,30.57
2023-02-17T00:29:22.541Z,30.37
2023-02-17T00:31:50.951Z,32.33
2023-02-17T00:34:19.060Z,32.87
2023-02-17T00:36:47.555Z,33.70
2023-02-17T00:39:17.020Z,33.37
2023-02-17T00:41:46.455Z,33.00
2023-02-17T00:44:18.821Z,32.90
2023-02-17T00:46:47.210Z,32.27
2023-02-17T00:49:17.178Z,32.27
2023-02-17T00:51:45.750Z,32.87
2023-02-17T00:54:13.943Z,33.87
2023-02-17T00:56:42.298Z,40.63
2023-02-17T00:59:12.379Z,38.23
2023-02-17T01:01:41.690Z,42.07
2023-02-17T01:04:10.752Z,36.40
2023-02-17T01:06:41.401Z,41.90
2023-02-17T01:09:10.616Z,39.97
2023-02-17T01:11:39.692Z,39.43
2023-02-17T01:14:08.125Z,47.53
2023-02-17T01:16:39.996Z,34.17
2023-02-17T01:19:10.151Z,31.57
2023-02-17T01:21:38.411Z,38.13
2023-02-17T01:24:08.991Z,34.57
2023-02-17T01:26:39.129Z,36.27
2023-02-17T01:29:08.140Z,37.80
2023-02-17T01:31:37.762Z,37.10
2023-02-17T01:34:07.582Z,32.13
2023-02-17T01:36:38.436Z,30.40
2023-02-17T01:39:07.820Z,39.73
2023-02-17T01:41:36.632Z,33.73
2023-02-17T01:44:14.451Z,28.77
2023-02-17T01:46:45.343Z,26.37
2023-02-17T01:49:21.906Z,31.30
2023-02-17T01:51:53.263Z,27.07
2023-02-17T01:54:27.437Z,29.50
2023-02-17T01:56:56.199Z,31.37
2023-02-17T01:59:24.443Z,24.87
2023-02-17T02:01:57.018Z,26.57
2023-02-17T02:04:27.691Z,25.63
2023-02-17T02:06:56.210Z,28.83
2023-02-17T02:09:30.552Z,32.57
2023-02-17T02:12:00.998Z,29.03
2023-02-17T02:14:33.366Z,29.43
2023-02-17T02:17:09.866Z,35.60
2023-02-17T02:20:13.401Z,29.07
2023-02-17T02:22:56.041Z,28.73
2023-02-17T02:25:50.981Z,30.73
2023-02-17T02:28:31.377Z,30.30
2023-02-17T02:31:12.565Z,33.93
2023-02-17T02:33:46.974Z,34.53
2023-02-17T02:36:17.608Z,34.90
2023-02-17T02:38:54.004Z,36.93
2023-02-17T02:41:25.655Z,35.37
2023-02-17T02:43:54.838Z,36.70
2023-02-17T02:46:24.927Z,35.10
2023-02-17T02:48:59.142Z,36.30
2023-02-17T02:51:49.381Z,37.00
2023-02-17T02:54:42.431Z,36.97
2023-02-17T02:57:21.696Z,35.93
2023-02-17T03:00:12.214Z,36.87
2023-02-17T03:02:46.656Z,37.07
2023-02-17T03:05:24.934Z,34.70
2023-02-17T03:08:01.482Z,35.50
2023-02-17T03:10:35.084Z,38.53
2023-02-17T03:13:04.661Z,38.93
2023-02-17T03:15:34.912Z,40.10
2023-02-17T03:18:04.326Z,38.57
2023-02-17T03:20:39.163Z,39.70
2023-02-17T03:23:07.656Z,39.13
2023-02-17T03:25:39.738Z,38.00
2023-02-17T03:28:10.807Z,41.50
2023-02-17T03:30:39.330Z,39.47
2023-02-17T03:33:07.203Z,38.43
2023-02-17T03:35:38.350Z,39.70
2023-02-17T03:38:07.951Z,39.20
2023-02-17T03:40:37.994Z,41.03
2023-02-17T03:43:06.494Z,39.07
2023-02-17T03:45:39.481Z,37.27
2023-02-17T03:48:10.255Z,37.70
2023-02-17T03:50:41.264Z,40.17
2023-02-17T03:53:12.447Z,38.07
2023-02-17T03:55:41.518Z,39.03
2023-02-17T03:58:14.647Z,39.93
2023-02-17T04:00:44.192Z,40.33
2023-02-17T04:03:12.355Z,41.90
2023-02-17T04:05:45.653Z,39.77
2023-02-17T04:08:13.970Z,40.50
2023-02-17T04:10:42.351Z,41.23
2023-02-17T04:13:10.825Z,41.10
2023-02-17T04:15:39.408Z,41.50
2023-02-17T04:18:07.466Z,41.83
2023-02-17T04:20:36.034Z,41.23
2023-02-17T04:23:05.243Z,43.27
2023-02-17T04:25:35.298Z,42.40
2023-02-17T04:28:03.545Z,42.30
2023-02-17T04:30:32.060Z,43.27
2023-02-17T04:33:00.120Z,42.03
2023-02-17T04:35:29.378Z,42.40
2023-02-17T04:38:00.511Z,43.00
2023-02-17T04:40:29.994Z,43.80
2023-02-17T04:42:58.253Z,41.77
2023-02-17T04:45:26.407Z,42.40
2023-02-17T04:47:55.095Z,42.50
2023-02-17T04:50:23.441Z,40.50
2023-02-17T04:52:52.310Z,41.63
2023-02-17T04:55:23.879Z,41.57
2023-02-17T04:57:53.195Z,40.27
2023-02-17T05:00:23.112Z,42.47
2023-02-17T05:02:51.326Z,38.90
2023-02-17T05:05:22.001Z,38.20
2023-02-17T05:07:51.282Z,39.10
2023-02-17T05:10:24.231Z,41.07
2023-02-17T05:12:53.594Z,40.27
2023-02-17T05:15:22.451Z,41.10
2023-02-17T05:17:50.511Z,40.83
2023-02-17T05:20:19.189Z,42.37
2023-02-17T05:22:47.670Z,41.53
2023-02-17T05:25:15.977Z,43.70
2023-02-17T05:27:44.194Z,42.80
2023-02-17T05:30:17.890Z,43.80
2023-02-17T05:32:45.848Z,42.83
2023-02-17T05:35:14.362Z,43.73
2023-02-17T05:37:43.049Z,41.80
2023-02-17T05:40:11.775Z,44.23
2023-02-17T05:42:39.857Z,40.70
2023-02-17T05:45:08.298Z,44.83
2023-02-17T05:47:38.256Z,43.53
2023-02-17T05:50:08.322Z,43.23
2023-02-17T05:52:36.189Z,42.70
2023-02-17T05:55:06.094Z,42.90
2023-02-17T05:57:34.437Z,44.33
2023-02-17T06:00:05.822Z,44.90
2023-02-17T06:02:46.059Z,40.37
2023-02-17T06:05:14.192Z,39.33
2023-02-17T06:07:42.093Z,41.83
2023-02-17T06:10:11.237Z,42.03
2023-02-17T06:12:40.369Z,38.50
2023-02-17T06:15:08.926Z,40.07
2023-02-17T06:17:37.202Z,40.80
2023-02-17T06:20:08.149Z,37.00
2023-02-17T06:22:37.517Z,39.53
2023-02-17T06:25:05.866Z,38.37
2023-02-17T06:27:33.985Z,41.13
2023-02-17T06:30:04.242Z,39.47
2023-02-17T06:32:32.435Z,38.93
2023-02-17T06:35:01.390Z,39.07
2023-02-17T06:37:30.939Z,39.07
2023-02-17T06:39:59.304Z,37.70
2023-02-17T06:42:27.545Z,35.83
2023-02-17T06:44:55.800Z,37.67
2023-02-17T06:47:24.938Z,35.47
2023-02-17T06:49:57.279Z,35.87
2023-02-17T06:52:25.407Z,34.53
2023-02-17T06:54:54.897Z,36.83
2023-02-17T06:57:23.416Z,34.17
2023-02-17T06:59:51.662Z,34.50
2023-02-17T07:02:19.919Z,33.23
2023-02-17T07:04:47.987Z,31.27
2023-02-17T07:07:18.528Z,32.30
2023-02-17T07:09:46.913Z,30.87
2023-02-17T07:12:16.874Z,30.90
2023-02-17T07:14:44.994Z,28.93
2023-02-17T07:17:14.129Z,29.23
2023-02-17T07:19:42.138Z,26.47
2023-02-17T07:22:10.220Z,28.47
2023-02-17T07:24:38.496Z,26.80
2023-02-17T07:27:10.821Z,27.90
2023-02-17T07:29:42.871Z,26.37
2023-02-17T07:32:11.514Z,25.27
2023-02-17T07:34:39.697Z,26.63
2023-02-17T07:37:10.533Z,26.97
2023-02-17T07:39:39.133Z,25.93
2023-02-17T07:42:07.614Z,26.10
2023-02-17T07:44:35.885Z,24.40
2023-02-17T07:47:05.745Z,23.93
2023-02-17T07:49:35.098Z,26.23
2023-02-17T07:52:05.318Z,24.03
2023-02-17T07:54:34.229Z,23.07
2023-02-17T07:57:04.537Z,24.37
2023-02-17T07:59:32.930Z,22.70
2023-02-17T08:02:04.821Z,23.27
2023-02-17T08:04:34.646Z,20.60
2023-02-17T08:07:03.237Z,20.73
2023-02-17T08:09:49.467Z,20.17
2023-02-17T08:12:36.197Z,19.50
2023-02-17T08:15:04.267Z,18.90
2023-02-17T08:17:33.413Z,24.93
2023-02-17T08:20:08.824Z,19.80
2023-02-17T08:22:38.015Z,21.40
2023-02-17T08:25:06.586Z,20.73
2023-02-17T08:27:35.769Z,20.90
2023-02-17T08:30:03.783Z,19.50
2023-02-17T08:32:31.930Z,18.13
2023-02-17T08:35:00.547Z,19.30
2023-02-17T08:37:33.904Z,17.77
2023-02-17T08:40:01.969Z,19.70
2023-02-17T08:42:30.846Z,18.93
2023-02-17T08:44:59.675Z,21.33
2023-02-17T08:47:29.284Z,21.10
2023-02-17T08:49:59.087Z,20.73
2023-02-17T08:52:30.328Z,20.90
2023-02-17T08:54:58.510Z,22.30
2023-02-17T08:57:26.801Z,21.93
2023-02-17T08:59:57.792Z,22.53
2023-02-17T09:02:26.710Z,23.57
2023-02-17T09:04:54.651Z,24.03
2023-02-17T09:07:25.580Z,23.40
2023-02-17T09:09:57.397Z,24.10
2023-02-17T09:12:27.290Z,22.27
2023-02-17T09:14:55.178Z,25.03
2023-02-17T09:17:23.409Z,24.77
2023-02-17T09:19:53.884Z,23.47
2023-02-17T09:22:31.619Z,24.87
2023-02-17T09:25:09.730Z,24.37
2023-02-17T09:27:38.578Z,25.57
2023-02-17T09:30:08.012Z,23.90
2023-02-17T09:32:37.600Z,25.30
2023-02-17T09:35:06.920Z,25.37
2023-02-17T09:37:39.779Z,24.20
2023-02-17T09:40:10.113Z,24.47
2023-02-17T09:42:41.546Z,25.03
2023-02-17T09:45:13.241Z,25.60
2023-02-17T09:47:47.189Z,25.17
2023-02-17T09:50:18.932Z,26.27
2023-02-17T09:52:53.536Z,26.93
2023-02-17T09:55:27.838Z,27.37
2023-02-17T09:57:59.915Z,25.83
2023-02-17T10:00:33.389Z,26.87
2023-02-17T10:03:06.387Z,26.03
2023-02-17T10:05:40.686Z,26.93
2023-02-17T10:08:12.824Z,24.73
2023-02-17T10:10:48.807Z,25.77
2023-02-17T10:13:20.377Z,28.23
2023-02-17T10:15:51.997Z,26.60
2023-02-17T10:18:28.942Z,27.53
2023-02-17T10:21:01.123Z,26.37
2023-02-17T10:23:30.929Z,28.03
2023-02-17T10:26:10.994Z,27.23
2023-02-17T10:28:48.242Z,26.87
2023-02-17T10:31:22.288Z,27.43
2023-02-17T10:33:56.332Z,26.93
2023-02-17T10:36:31.905Z,24.63
2023-02-17T10:39:05.035Z,26.83
2023-02-17T10:41:37.725Z,28.03
2023-02-17T10:44:09.321Z,27.37
2023-02-17T10:46:42.079Z,28.20
2023-02-17T10:49:18.214Z,26.77
2023-02-17T10:51:47.852Z,27.87
2023-02-17T10:54:26.658Z,28.43
2023-02-17T10:57:00.407Z,30.20
2023-02-17T10:59:31.308Z,26.67
2023-02-17T11:02:07.838Z,24.97
2023-02-17T11:04:42.544Z,24.80
2023-02-17T11:07:13.937Z,23.70
2023-02-17T11:09:48.610Z,21.70
2023-02-17T11:12:23.720Z,21.53
2023-02-17T11:14:56.191Z,22.80
2023-02-17T11:17:31.197Z,24.30
2023-02-17T11:20:04.079Z,24.63
2023-02-17T11:22:41.012Z,22.43
2023-02-17T11:25:24.429Z,24.43
2023-02-17T11:27:56.686Z,25.00
2023-02-17T11:30:26.073Z,24.67
2023-02-17T11:32:57.594Z,24.67
2023-02-17T11:35:32.210Z,23.43
2023-02-17T11:38:05.070Z,21.53
2023-02-17T11:40:34.775Z,23.87
2023-02-17T11:43:08.876Z,23.43
2023-02-17T11:45:43.788Z,19.17
2023-02-17T11:48:42.383Z,21.17
2023-02-17T11:51:13.204Z,20.10
2023-02-17T11:53:49.857Z,25.20
2023-02-17T11:56:19.323Z,21.87
2023-02-17T11:59:24.172Z,19.93
2023-02-17T12:02:17.634Z,17.73
2023-02-17T12:05:10.546Z,20.87
2023-02-17T12:07:46.647Z,20.67
2023-02-17T12:10:20.114Z,16.60
2023-02-17T12:13:04.835Z,18.57
2023-02-17T12:15:44.245Z,19.83
2023-02-17T12:18:30.434Z,16.03
2023-02-17T12:21:07.508Z,17.60
2023-02-17T12:23:52.099Z,18.43
2023-02-17T12:26:28.697Z,14.50
2023-02-17T12:29:06.379Z,15.50
2023-02-17T12:32:00.443Z,15.93
2023-02-17T12:34:34.494Z,14.30
2023-02-17T12:37:02.701Z,15.83
2023-02-17T12:39:34.841Z,11.83
2023-02-17T12:42:09.312Z,9.83
2023-02-17T12:44:42.156Z,10.43
2023-02-17T12:47:15.594Z,11.23
2023-02-17T12:49:50.447Z,13.10
2023-02-17T12:52:21.359Z,9.53
2023-02-17T12:54:52.799Z,10.00
2023-02-17T12:57:23.860Z,8.30
2023-02-17T12:59:53.421Z,9.37
2023-02-17T13:02:25.203Z,12.17
2023-02-17T13:04:56.253Z,7.90
2023-02-17T13:07:40.399Z,8.97
2023-02-17T13:10:21.042Z,8.60
2023-02-17T13:12:58.538Z,8.17
2023-02-17T13:15:29.897Z,7.70
2023-02-17T13:18:03.047Z,7.97
2023-02-17T13:20:56.895Z,7.00
2023-02-17T13:23:36.651Z,6.90
2023-02-17T13:26:26.804Z,7.80
2023-02-17T13:29:07.155Z,7.60
2023-02-17T13:31:46.907Z,7.03
2023-02-17T13:34:26.057Z,7.73
2023-02-17T13:36:56.577Z,6.97
2023-02-17T13:39:34.691Z,6.70
2023-02-17T13:42:03.302Z,7.23
2023-02-17T13:44:33.653Z,6.40
2023-02-17T13:47:04.981Z,7.10
2023-02-17T13:49:37.149Z,6.33
2023-02-17T13:52:13.320Z,5.40
2023-02-17T13:54:42.017Z,5.23
2023-02-17T13:57:25.685Z,5.80
2023-02-17T14:00:05.989Z,5.50
2023-02-17T14:02:55.563Z,5.80
2023-02-17T14:05:27.844Z,5.70
2023-02-17T14:08:00.964Z,5.30
2023-02-17T14:10:29.356Z,5.50
2023-02-17T14:12:58.009Z,4.90
2023-02-17T14:15:29.942Z,5.30
2023-02-17T14:17:58.756Z,5.50
2023-02-17T14:20:33.288Z,5.57
2023-02-17T14:23:07.656Z,5.10
2023-02-17T14:25:38.325Z,4.90
2023-02-17T14:28:19.834Z,5.23
2023-02-17T14:30:49.133Z,5.53
2023-02-17T14:33:24.519Z,5.30
2023-02-17T14:35:56.207Z,5.77
2023-02-17T14:38:31.930Z,5.60
2023-02-17T14:41:02.079Z,5.83
2023-02-17T14:43:30.268Z,5.57
2023-02-17T14:45:58.803Z,5.63
2023-02-17T14:48:29.654Z,5.40
2023-02-17T14:50:58.558Z,5.80
2023-02-17T14:53:31.302Z,6.20
2023-02-17T14:56:02.349Z,7.03
2023-02-17T14:58:33.648Z,8.17
2023-02-17T15:01:02.944Z,8.80
2023-02-17T15:03:31.906Z,9.37
2023-02-17T15:06:02.544Z,9.30
2023-02-17T15:08:36.229Z,10.07
2023-02-17T15:11:05.199Z,9.30
2023-02-17T15:13:33.391Z,10.93
2023-02-17T15:16:04.852Z,11.83
2023-02-17T15:18:33.025Z,11.67
2023-02-17T15:21:02.573Z,11.77
2023-02-17T15:23:35.061Z,12.60
2023-02-17T15:26:06.909Z,12.13
2023-02-17T15:28:35.420Z,13.97
2023-02-17T15:31:04.798Z,12.37
2023-02-17T15:33:33.489Z,11.67
2023-02-17T15:36:05.946Z,12.63
2023-02-17T15:38:36.233Z,13.10
2023-02-17T15:41:05.906Z,12.80
2023-02-17T15:46:13.107Z,13.83
2023-02-17T15:48:41.398Z,14.23
2023-02-17T15:51:12.181Z,13.37
2023-02-17T15:53:43.666Z,14.50
2023-02-17T15:56:14.711Z,13.27
2023-02-17T15:58:44.850Z,17.47
2023-02-17T16:01:18.840Z,13.10
2023-02-17T16:03:47.124Z,12.20
2023-02-17T16:06:15.625Z,32.90
2023-02-17T16:08:48.471Z,19.03
2023-02-17T16:11:18.216Z,11.47
2023-02-17T16:13:49.086Z,11.90
2023-02-17T16:16:20.192Z,12.50
2023-02-17T16:18:52.022Z,11.40
2023-02-17T16:21:23.856Z,10.60
2023-02-17T16:23:59.603Z,10.07
2023-02-17T16:26:33.536Z,11.03
2023-02-17T16:29:07.435Z,10.40
2023-02-17T16:31:35.889Z,10.53
2023-02-17T16:34:05.258Z,10.07
2023-02-17T16:36:36.165Z,10.23
2023-02-17T16:39:13.208Z,9.13
2023-02-17T16:41:42.723Z,8.63
2023-02-17T16:44:13.636Z,8.40
2023-02-17T16:46:47.282Z,7.70
2023-02-17T16:49:20.931Z,7.30
2023-02-17T16:51:49.813Z,7.57
2023-02-17T16:54:20.664Z,6.77
2023-02-17T16:56:51.125Z,7.30
2023-02-17T16:59:20.892Z,6.80
2023-02-17T17:01:49.713Z,6.80
2023-02-17T17:04:20.972Z,7.37
2023-02-17T17:06:52.953Z,5.37
2023-02-17T17:09:25.195Z,6.60
2023-02-17T17:11:55.731Z,5.70
2023-02-17T17:14:25.437Z,5.87
2023-02-17T17:16:57.085Z,5.10
2023-02-17T17:19:26.677Z,5.23
2023-02-17T17:21:57.127Z,4.73
2023-02-17T17:24:26.846Z,5.20
2023-02-17T17:26:58.051Z,4.97
2023-02-17T17:29:26.028Z,5.00
2023-02-17T17:31:54.898Z,5.37
2023-02-17T17:34:24.394Z,4.77
2023-02-17T17:36:53.383Z,4.70
2023-02-17T17:39:23.330Z,4.73
2023-02-17T17:41:53.432Z,4.43
2023-02-17T17:44:22.448Z,4.27
2023-02-17T17:46:54.035Z,4.57
2023-02-17T17:49:23.309Z,4.00
2023-02-17T17:51:52.166Z,5.53
2023-02-17T17:54:20.645Z,4.10
2023-02-17T17:56:48.847Z,4.30
2023-02-17T17:59:18.527Z,4.47
2023-02-17T18:01:47.147Z,4.67
2023-02-17T18:04:16.716Z,4.67
2023-02-17T18:06:47.806Z,4.90
2023-02-17T18:09:31.808Z,6.00
2023-02-17T18:12:03.241Z,5.90
2023-02-17T18:14:33.063Z,5.47
2023-02-17T18:17:03.531Z,5.47
2023-02-17T18:19:32.870Z,2.97
2023-02-17T18:22:04.576Z,3.80
2023-02-17T18:24:35.423Z,2.93
2023-02-17T18:27:05.222Z,2.50
2023-02-17T18:29:35.696Z,3.10
2023-02-17T18:32:06.488Z,2.90
2023-02-17T18:34:34.585Z,2.20
2023-02-17T18:37:07.313Z,3.90
2023-02-17T18:39:37.291Z,3.20
2023-02-17T18:42:06.342Z,2.63
2023-02-17T18:44:39.337Z,2.77
2023-02-17T18:47:07.776Z,3.37
2023-02-17T18:49:40.539Z,2.83
2023-02-17T18:52:13.516Z,2.57
2023-02-17T18:54:46.732Z,2.60
2023-02-17T18:57:21.706Z,2.80
2023-02-17T18:59:52.495Z,2.60
2023-02-17T19:02:28.701Z,3.40
2023-02-17T19:05:00.543Z,2.60
2023-02-17T19:07:28.965Z,3.87
2023-02-17T19:10:00.854Z,2.70
2023-02-17T19:12:30.000Z,5.50
2023-02-17T19:15:00.567Z,2.03
2023-02-17T19:17:32.800Z,2.80
2023-02-17T19:20:02.382Z,2.03
2023-02-17T19:22:32.333Z,2.23
2023-02-17T19:25:00.761Z,2.53
2023-02-17T19:27:28.964Z,1.97
2023-02-17T19:29:58.602Z,1.90
2023-02-17T19:32:28.891Z,1.50
2023-02-17T19:35:00.478Z,1.97
2023-02-17T19:37:30.422Z,2.30
2023-02-17T19:40:00.966Z,2.20
2023-02-17T19:42:29.521Z,2.50
2023-02-17T19:45:01.132Z,2.00
2023-02-17T19:47:31.739Z,2.40
2023-02-17T19:50:00.177Z,2.30
2023-02-17T19:52:33.438Z,2.70
2023-02-17T19:55:01.639Z,3.97
2023-02-17T19:57:30.293Z,2.60
2023-02-17T19:59:58.985Z,1.87
2023-02-17T20:02:27.065Z,2.47
2023-02-17T20:04:56.873Z,2.27
2023-02-17T20:07:25.666Z,2.50
2023-02-17T20:09:55.566Z,2.83
2023-02-17T20:12:23.890Z,2.40
2023-02-17T20:14:53.513Z,2.00
2023-02-17T20:17:24.260Z,2.60
2023-02-17T20:19:54.167Z,2.30
2023-02-17T20:22:24.174Z,2.70
2023-02-17T20:24:54.579Z,2.53
2023-02-17T20:27:24.128Z,1.83
2023-02-17T20:29:52.564Z,2.40
2023-02-17T20:32:24.343Z,2.50
2023-02-17T20:34:55.057Z,2.63
2023-02-17T20:37:35.132Z,3.03
2023-02-17T20:40:05.268Z,2.83
2023-02-17T20:42:34.573Z,2.63
2023-02-17T20:45:04.000Z,2.43
2023-02-17T20:47:33.233Z,2.93
2023-02-17T20:50:08.742Z,2.90
2023-02-17T20:52:39.371Z,3.07
2023-02-17T20:55:09.165Z,2.60
2023-02-17T20:57:39.691Z,3.67
2023-02-17T21:00:10.198Z,2.80
2023-02-17T21:02:39.539Z,2.47
2023-02-17T21:05:08.673Z,2.50
2023-02-17T21:07:41.599Z,2.63
2023-02-17T21:10:15.210Z,2.53
2023-02-17T21:12:43.816Z,3.00
2023-02-17T21:15:13.230Z,2.70
2023-02-17T21:17:41.598Z,2.60
2023-02-17T21:20:12.953Z,2.73
2023-02-17T21:22:44.245Z,2.30
2023-02-17T21:25:13.524Z,3.47
2023-02-17T21:27:44.833Z,2.90
2023-02-17T21:30:14.220Z,2.87
2023-02-17T21:32:43.762Z,3.10
2023-02-17T21:35:12.658Z,2.67
2023-02-17T21:37:41.094Z,2.90
2023-02-17T21:40:13.040Z,2.77
2023-02-17T21:43:08.854Z,2.60
2023-02-17T21:45:39.132Z,3.47
2023-02-17T21:48:07.897Z,2.80
2023-02-17T21:50:36.225Z,2.60
2023-02-17T21:53:05.209Z,3.63
2023-02-17T21:55:35.691Z,2.70
2023-02-17T21:58:03.998Z,2.70
2023-02-17T22:00:32.721Z,2.67
2023-02-17T22:03:02.947Z,3.20
2023-02-17T22:05:31.738Z,3.03
2023-02-17T22:08:00.100Z,3.07
2023-02-17T22:10:30.523Z,10.73
2023-02-17T22:13:00.190Z,3.17
2023-02-17T22:15:29.974Z,3.93
2023-02-17T22:17:58.045Z,3.70
2023-02-17T22:20:26.613Z,2.97
2023-02-17T22:22:57.144Z,3.60
2023-02-17T22:25:25.558Z,4.07
2023-02-17T22:27:54.180Z,4.40
2023-02-17T22:30:24.729Z,1.93
2023-02-17T22:32:54.117Z,3.20
2023-02-17T22:35:23.927Z,2.83
2023-02-17T22:37:52.464Z,3.13
2023-02-17T22:40:20.773Z,2.77
2023-02-17T22:42:50.935Z,2.20
2023-02-17T22:45:19.429Z,3.30
2023-02-17T22:47:49.526Z,3.90
2023-02-17T22:50:18.305Z,2.97
2023-02-17T22:52:47.225Z,3.23
2023-02-17T22:55:15.631Z,3.23
2023-02-17T22:57:46.897Z,2.93
2023-02-17T23:00:21.267Z,3.43
2023-02-17T23:02:51.679Z,2.87
2023-02-17T23:05:22.355Z,2.73
2023-02-17T23:07:55.144Z,2.90
2023-02-17T23:10:23.698Z,2.60
2023-02-17T23:12:51.685Z,3.10
2023-02-17T23:15:39.028Z,3.27
2023-02-17T23:18:11.186Z,2.70
2023-02-17T23:20:40.269Z,2.70
2023-02-17T23:23:08.797Z,2.83
2023-02-17T23:25:38.014Z,2.77
2023-02-17T23:28:07.153Z,3.03
2023-02-17T23:30:35.555Z,3.00
2023-02-17T23:33:05.376Z,2.73
2023-02-17T23:35:34.701Z,2.90
2023-02-17T23:38:02.606Z,2.83
2023-02-17T23:40:34.906Z,3.33
2023-02-17T23:43:03.230Z,2.67
2023-02-17T23:45:32.220Z,3.73
2023-02-17T23:48:01.636Z,3.90
2023-02-17T23:50:30.434Z,3.30
2023-02-17T23:53:02.720Z,3.43
2023-02-17T23:55:31.292Z,3.33
2023-02-17T23:58:00.969Z,3.07
